Time;durP1;ratioP1;P1;durP2;ratioP2;P2;SDS_P1;SDS_P2;PMS_P1;PMS_P2;Temp;Humidity;BMP_temperature;BMP_pressure;BME280_temperature;BME280_humidity;BME280_pressure;Samples;Min_cycle;Max_cycle;Signal;HPM_P1;HPM_P2
2021/05/03 00:01:53;;;;;;;7.88;3.10;;;;;;;4.02;71.23;100808.50;5017834;28;20046;-68
2021/05/03 00:04:19;;;;;;;7.13;3.40;;;;;;;4.03;70.97;100808.47;5017103;28;20100;-69
2021/05/03 00:06:46;;;;;;;4.28;2.90;;;;;;;4.08;70.44;100800.44;5017863;28;20439;-72
2021/05/03 00:09:12;;;;;;;8.95;3.78;;;;;;;4.14;70.05;100802.09;5018071;28;20141;-68
2021/05/03 00:11:38;;;;;;;5.47;2.85;;;;;;;4.05;70.53;100800.53;5019239;28;20054;-72
2021/05/03 00:14:04;;;;;;;5.50;2.75;;;;;;;3.96;70.96;100801.59;5028343;28;20049;-69
2021/05/03 00:16:31;;;;;;;3.83;2.47;;;;;;;3.79;71.96;100794.06;5020219;28;20056;-71
2021/05/03 00:18:57;;;;;;;6.40;2.72;;;;;;;3.80;72.27;100807.25;5036396;28;20065;-71
2021/05/03 00:21:23;;;;;;;6.18;3.08;;;;;;;3.74;72.34;100806.50;5036628;28;20058;-69
2021/05/03 00:23:50;;;;;;;7.82;3.35;;;;;;;3.74;71.87;100802.09;5036185;28;20107;-71
2021/05/03 00:26:16;;;;;;;6.60;3.00;;;;;;;3.67;72.08;100798.72;5037947;28;20054;-71
2021/05/03 00:28:43;;;;;;;8.05;3.25;;;;;;;3.66;72.47;100806.69;5037288;28;20049;-71
2021/05/03 00:31:09;;;;;;;5.43;3.05;;;;;;;3.61;72.61;100806.78;5037862;28;20054;-71
2021/05/03 00:33:39;;;;;;;5.32;3.13;;;;;;;3.65;72.77;100803.16;5037226;28;20072;-70
2021/05/03 00:36:07;;;;;;;7.63;3.97;;;;;;;3.60;72.70;100805.03;5037120;28;20049;-69
2021/05/03 00:38:33;;;;;;;4.95;3.92;;;;;;;3.71;72.64;100811.88;5037201;28;20096;-72
2021/05/03 00:41:01;;;;;;;4.72;3.58;;;;;;;3.77;71.77;100811.72;5036907;28;20053;-69
2021/05/03 00:43:28;;;;;;;5.93;3.83;;;;;;;3.60;72.03;100804.19;5035836;28;20100;-70
2021/05/03 00:45:54;;;;;;;9.80;5.57;;;;;;;3.61;72.62;100811.19;5036758;28;20351;-68
2021/05/03 00:48:21;;;;;;;7.57;3.67;;;;;;;3.62;72.36;100812.94;5036746;28;20431;-69
2021/05/03 00:50:48;;;;;;;9.70;4.18;;;;;;;3.62;72.71;100813.81;5036666;28;20492;-68
2021/05/03 00:53:14;;;;;;;6.78;3.88;;;;;;;3.59;72.58;100803.31;5036657;28;20103;-69
2021/05/03 00:55:41;;;;;;;8.50;4.13;;;;;;;3.65;72.65;100808.44;5036527;28;20380;-68
2021/05/03 00:58:09;;;;;;;10.10;3.92;;;;;;;3.72;71.93;100808.31;5036840;28;20053;-72
2021/05/03 01:00:35;;;;;;;9.65;3.60;;;;;;;3.72;71.85;100809.19;5036844;28;20054;-69
2021/05/03 01:03:02;;;;;;;6.70;4.18;;;;;;;3.74;71.89;100806.50;5036527;28;20049;-71
2021/05/03 01:05:29;;;;;;;7.15;4.40;;;;;;;3.72;71.90;100811.84;5052114;28;20057;-72
2021/05/03 01:07:56;;;;;;;8.98;4.03;;;;;;;3.57;72.23;100794.56;5036499;28;20403;-72
2021/05/03 01:10:24;;;;;;;7.72;3.95;;;;;;;3.73;71.51;100807.41;5036247;28;20132;-72
2021/05/03 01:12:52;;;;;;;11.85;4.20;;;;;;;3.66;71.25;100802.25;5035354;28;20427;-68
2021/05/03 01:15:25;;;;;;;6.85;4.45;;;;;;;3.71;71.77;100801.31;5036064;28;20049;-73
2021/05/03 01:18:03;;;;;;;9.68;4.60;;;;;;;3.72;71.36;100803.03;5036419;28;20061;-70
2021/05/03 01:20:35;;;;;;;8.25;4.25;;;;;;;3.70;71.16;100794.28;5036541;28;20041;-70
2021/05/03 01:23:01;;;;;;;7.38;5.03;;;;;;;3.66;71.69;100788.22;5036277;28;20050;-70
2021/05/03 01:25:31;;;;;;;8.07;4.45;;;;;;;3.64;71.53;100800.56;5036283;28;20068;-70
2021/05/03 01:28:03;;;;;;;7.28;4.28;;;;;;;3.71;71.03;100796.03;5036325;28;20054;-73
2021/05/03 01:30:33;;;;;;;10.25;4.57;;;;;;;3.64;70.63;100785.59;5036235;28;20045;-71
2021/05/03 01:33:00;;;;;;;9.77;5.25;;;;;;;3.69;70.24;100800.47;5036174;28;20060;-71
2021/05/03 01:35:27;;;;;;;11.73;4.88;;;;;;;3.70;71.06;100799.56;5035854;28;20426;-69
2021/05/03 01:37:55;;;;;;;9.80;5.32;;;;;;;3.71;70.86;100798.66;5035898;28;20084;-72
2021/05/03 01:40:26;;;;;;;9.93;4.97;;;;;;;3.76;70.67;100799.44;5036071;28;20053;-73
2021/05/03 01:42:52;;;;;;;;;;;;;;;3.73;71.04;100795.09;5052084;28;20092;-70
2021/05/03 01:45:23;;;;;;;9.82;4.72;;;;;;;3.71;70.83;100798.66;5035759;28;19928;-73
2021/05/03 01:47:50;;;;;;;11.93;4.82;;;;;;;3.59;71.44;100795.38;5035666;28;20053;-72
2021/05/03 01:50:19;;;;;;;7.75;4.75;;;;;;;3.49;72.18;100791.22;5035942;28;20332;-73
2021/05/03 01:52:46;;;;;;;8.32;4.93;;;;;;;3.44;72.21;100793.97;5035554;28;20054;-69
2021/05/03 01:55:13;;;;;;;10.02;4.60;;;;;;;3.44;72.60;100793.06;5034788;28;20049;-72
2021/05/03 01:57:40;;;;;;;9.40;4.82;;;;;;;3.37;72.79;100798.47;5035329;28;20060;-71
2021/05/03 02:00:07;;;;;;;7.47;4.80;;;;;;;3.36;72.78;100798.50;5035604;28;20438;-69
2021/05/03 02:02:34;;;;;;;12.10;4.85;;;;;;;3.39;72.57;100790.53;5035452;28;20469;-72
2021/05/03 02:05:00;;;;;;;9.07;4.95;;;;;;;3.40;72.23;100795.75;5034097;28;20191;-70
2021/05/03 02:07:26;;;;;;;10.40;5.28;;;;;;;3.31;72.89;100785.41;5034701;28;20049;-70
2021/05/03 02:09:53;;;;;;;8.18;5.35;;;;;;;3.31;72.45;100789.84;5035665;28;20054;-71
2021/05/03 02:12:19;;;;;;;6.97;4.60;;;;;;;3.31;72.69;100788.06;5035636;28;20053;-70
2021/05/03 02:14:45;;;;;;;11.55;5.22;;;;;;;3.27;72.62;100791.63;5035247;28;20057;-69
2021/05/03 02:17:12;;;;;;;10.43;4.88;;;;;;;3.38;72.14;100792.28;5050671;28;20104;-71
2021/05/03 02:19:39;;;;;;;7.78;4.90;;;;;;;3.21;72.84;100781.25;5034207;28;20049;-69
2021/05/03 02:22:05;;;;;;;9.73;4.35;;;;;;;3.29;72.95;100794.25;5035256;28;20049;-72
2021/05/03 02:24:31;;;;;;;7.90;4.80;;;;;;;3.22;72.78;100797.00;5035382;28;20049;-69
2021/05/03 02:26:57;;;;;;;9.88;4.88;;;;;;;3.23;72.95;100800.53;5035514;28;20053;-69
2021/05/03 02:29:23;;;;;;;7.57;5.13;;;;;;;3.22;73.14;100797.00;5034015;28;20057;-70
2021/05/03 02:31:50;;;;;;;9.43;5.25;;;;;;;3.18;72.95;100797.13;5035240;28;20398;-72
2021/05/03 02:34:16;;;;;;;9.02;4.53;;;;;;;3.18;73.16;100797.13;5035279;28;20115;-69
2021/05/03 02:36:42;;;;;;;5.80;4.32;;;;;;;3.06;73.35;100783.25;5034974;28;20049;-71
2021/05/03 02:39:08;;;;;;;11.93;4.63;;;;;;;3.01;73.41;100777.22;5034159;28;20049;-71
2021/05/03 02:41:35;;;;;;;7.25;4.80;;;;;;;3.09;73.62;100791.13;5034839;28;20052;-70
2021/05/03 02:44:01;;;;;;;7.93;4.75;;;;;;;3.05;73.57;100778.03;5035015;28;20060;-71
2021/05/03 02:46:28;;;;;;;6.80;4.68;;;;;;;3.06;73.76;100792.97;5035075;28;20065;-73
2021/05/03 02:48:55;;;;;;;9.68;4.75;;;;;;;3.05;73.54;100781.53;5034888;28;20496;-73
2021/05/03 02:51:22;;;;;;;9.25;4.82;;;;;;;3.05;73.18;100780.69;5034919;28;20374;-70
2021/05/03 02:53:48;;;;;;;8.10;4.47;;;;;;;3.00;74.18;100783.41;5034932;28;20053;-68
2021/05/03 02:56:15;;;;;;;7.75;5.15;;;;;;;3.05;73.33;100783.31;5034933;28;20111;-71
2021/05/03 02:58:41;;;;;;;7.85;4.65;;;;;;;3.02;73.63;100781.59;5034992;28;20085;-70
2021/05/03 03:01:08;;;;;;;11.10;5.25;;;;;;;2.95;73.52;100780.84;5034714;28;20492;-71
2021/05/03 03:03:34;;;;;;;15.23;4.57;;;;;;;2.93;73.96;100771.22;5033898;28;20065;-71
2021/05/03 03:06:00;;;;;;;8.57;4.22;;;;;;;2.94;73.80;100781.75;5035352;28;20092;-69
2021/05/03 03:08:26;;;;;;;7.22;4.40;;;;;;;2.92;73.66;100775.63;5017676;28;20072;-72
2021/05/03 03:10:52;;;;;;;8.40;4.85;;;;;;;2.92;73.81;100782.66;5035382;28;20054;-70
2021/05/03 03:13:19;;;;;;;8.68;4.57;;;;;;;2.92;73.93;100780.03;5017236;28;20057;-69
2021/05/03 03:15:45;;;;;;;7.15;4.80;;;;;;;2.96;73.73;100776.44;5035060;28;20046;-71
2021/05/03 03:18:11;;;;;;;9.70;5.15;;;;;;;2.81;74.14;100754.75;5038581;28;20088;-68
2021/05/03 03:20:37;;;;;;;6.53;4.97;;;;;;;2.86;74.47;100775.75;5038398;28;20427;-69
2021/05/03 03:23:04;;;;;;;8.40;6.75;;;;;;;2.97;73.40;100778.19;5037585;28;20129;-68
2021/05/03 03:25:30;;;;;;;11.13;6.13;;;;;;;3.05;73.08;100780.69;5038367;28;20431;-69
2021/05/03 03:27:57;;;;;;;12.23;5.63;;;;;;;3.01;73.14;100774.59;5038177;28;20453;-68
2021/05/03 03:30:24;;;;;;;7.43;5.05;;;;;;;2.99;73.12;100771.97;5037416;28;20111;-69
2021/05/03 03:32:50;;;;;;;11.45;5.57;;;;;;;2.97;73.21;100780.81;5038503;28;20049;-72
2021/05/03 03:35:18;;;;;;;10.27;5.50;;;;;;;3.03;73.19;100780.69;5037141;28;20056;-69
2021/05/03 03:37:45;;;;;;;11.85;5.60;;;;;;;3.01;73.09;100777.22;5038412;28;20053;-69
2021/05/03 03:40:14;;;;;;;7.43;5.47;;;;;;;3.04;73.15;100771.88;5037325;28;20103;-70
2021/05/03 03:42:40;;;;;;;11.20;5.93;;;;;;;2.99;73.33;100773.72;5038210;28;20053;-70
2021/05/03 03:45:08;;;;;;;8.23;5.15;;;;;;;2.94;73.45;100772.97;5038165;28;20049;-72
2021/05/03 03:47:35;;;;;;;8.90;5.15;;;;;;;2.84;74.00;100767.88;5037079;28;20057;-68
2021/05/03 03:50:03;;;;;;;9.30;6.28;;;;;;;2.84;74.16;100757.31;5036802;28;20053;-70
2021/05/03 03:52:29;;;;;;;8.77;6.45;;;;;;;2.92;74.08;100766.84;5038168;28;20053;-67
2021/05/03 03:54:55;;;;;;;11.73;6.13;;;;;;;2.94;73.99;100765.06;5037694;28;20405;-68
2021/05/03 03:57:22;;;;;;;8.52;6.03;;;;;;;2.87;74.95;100760.81;5037936;28;20137;-71
2021/05/03 03:59:53;;;;;;;9.35;6.63;;;;;;;2.88;74.55;100762.56;5037964;28;20053;-71
2021/05/03 04:02:19;;;;;;;13.18;6.60;;;;;;;2.91;74.26;100767.75;5037755;28;20057;-72
2021/05/03 04:04:56;;;;;;;14.13;6.47;;;;;;;2.84;74.94;100759.94;5037580;28;20135;-70
2021/05/03 04:07:40;;;;;;;11.50;6.72;;;;;;;2.87;74.91;100766.94;5037500;28;20431;-73
2021/05/03 04:26:12;;;;;;;8.68;7.00;;;;;;;3.13;74.58;100765.56;5039999;28;20506;-70
2021/05/03 04:28:45;;;;;;;12.18;7.97;;;;;;;3.22;74.66;100767.16;5039270;28;20060;-70
2021/05/03 04:31:12;;;;;;;14.37;7.87;;;;;;;3.30;74.16;100770.50;5039033;28;20095;-72
2021/05/03 04:33:39;;;;;;;13.07;8.48;;;;;;;3.33;74.01;100766.91;5038141;28;20057;-71
2021/05/03 04:36:07;;;;;;;12.73;8.38;;;;;;;3.38;73.74;100765.91;5052814;28;20176;-69
2021/05/03 04:38:33;;;;;;;14.98;8.07;;;;;;;3.42;73.69;100757.94;5036943;28;20058;-70
2021/05/03 04:41:00;;;;;;;12.85;7.57;;;;;;;3.47;73.73;100771.88;5037251;28;20049;-73
2021/05/03 04:43:26;;;;;;;16.08;8.25;;;;;;;3.50;73.16;100750.72;5037332;28;20057;-71
2021/05/03 04:45:52;;;;;;;11.77;7.85;;;;;;;3.58;73.25;100775.16;5037160;28;20076;-72
2021/05/03 04:48:18;;;;;;;13.73;7.72;;;;;;;3.56;73.21;100766.44;5037110;28;20123;-72
2021/05/03 04:50:45;;;;;;;15.95;8.20;;;;;;;3.56;73.37;100773.47;5036162;28;20049;-71
2021/05/03 04:53:11;;;;;;;12.25;7.53;;;;;;;3.56;73.45;100766.44;5036949;28;20060;-71
2021/05/03 04:55:37;;;;;;;11.48;8.02;;;;;;;3.60;73.28;100768.06;5036672;28;20057;-71
2021/05/03 04:58:07;;;;;;;9.45;7.32;;;;;;;3.56;73.18;100765.53;5036799;28;20057;-72
2021/05/03 05:00:33;;;;;;;9.63;7.90;;;;;;;3.60;72.93;100768.06;5035716;28;20132;-70
2021/05/03 05:02:59;;;;;;;9.88;7.18;;;;;;;3.54;72.64;100757.66;5035876;28;20053;-71
2021/05/03 05:05:27;;;;;;;15.30;8.02;;;;;;;3.64;72.83;100772.41;5036553;28;20056;-69
2021/05/03 05:07:55;;;;;;;10.27;7.80;;;;;;;3.70;72.69;100770.53;5035796;28;20053;-71
2021/05/03 05:10:21;;;;;;;14.80;8.23;;;;;;;3.64;72.91;100772.41;5036659;28;20103;-70
2021/05/03 05:12:49;;;;;;;12.75;8.07;;;;;;;3.57;72.96;100768.16;5052706;28;20053;-71
2021/05/03 05:15:16;;;;;;;13.85;7.85;;;;;;;3.56;72.97;100765.53;5037790;28;20080;-70
2021/05/03 05:17:43;;;;;;;14.55;7.40;;;;;;;3.59;72.64;100766.34;5037789;28;20422;-69
2021/05/03 05:20:10;;;;;;;10.20;7.20;;;;;;;3.65;72.99;100775.91;5037950;28;20057;-72
2021/05/03 05:22:37;;;;;;;14.63;8.48;;;;;;;3.75;72.62;100768.63;5036251;28;20410;-71
2021/05/03 05:25:07;;;;;;;10.65;7.22;;;;;;;3.79;72.28;100773.81;5033576;28;20050;-69
2021/05/03 05:27:33;;;;;;;14.68;7.20;;;;;;;3.74;72.67;100767.78;5032688;28;20060;-72
2021/05/03 05:30:00;;;;;;;12.10;7.22;;;;;;;3.75;72.87;100766.00;5036351;28;20107;-70
2021/05/03 05:32:26;;;;;;;9.70;7.30;;;;;;;3.78;72.98;100772.09;5036101;28;20080;-72
2021/05/03 05:34:52;;;;;;;10.73;7.57;;;;;;;3.84;72.88;100775.47;5034861;28;20057;-72
2021/05/03 05:37:18;;;;;;;13.02;7.25;;;;;;;3.82;72.73;100759.69;5036234;28;20045;-69
2021/05/03 05:39:44;;;;;;;13.93;7.35;;;;;;;3.89;72.39;100763.03;5035278;28;20132;-68
2021/05/03 05:42:10;;;;;;;15.63;6.88;;;;;;;4.02;71.99;100774.16;5036011;28;20068;-68
2021/05/03 05:44:37;;;;;;;9.90;7.47;;;;;;;4.04;71.81;100767.94;5035733;28;20430;-72
2021/05/03 05:47:03;;;;;;;14.10;7.47;;;;;;;4.05;71.68;100768.84;5035737;28;20125;-73
2021/05/03 05:49:29;;;;;;;15.07;7.45;;;;;;;4.12;71.85;100764.25;5035532;28;20089;-72
2021/05/03 05:51:56;;;;;;;10.15;6.93;;;;;;;4.11;71.96;100768.69;5034394;28;20393;-69
2021/05/03 05:54:22;;;;;;;12.02;7.55;;;;;;;4.18;71.58;100764.09;5034709;28;20045;-71
2021/05/03 05:56:48;;;;;;;13.25;7.50;;;;;;;4.29;71.03;100762.06;5035636;28;20084;-71
2021/05/03 05:59:15;;;;;;;12.65;7.00;;;;;;;4.41;70.80;100760.03;5035536;28;20057;-76
2021/05/03 06:01:42;;;;;;;12.85;7.07;;;;;;;4.44;70.21;100760.81;5048023;28;20049;-69
2021/05/03 06:04:08;;;;;;;12.00;6.93;;;;;;;4.59;70.50;100761.31;5027349;28;20053;-69
2021/05/03 06:06:34;;;;;;;10.85;6.82;;;;;;;4.70;70.03;100761.91;5016270;28;20050;-71
2021/05/03 06:09:01;;;;;;;11.93;6.93;;;;;;;4.81;69.53;100763.38;5035426;28;20092;-68
2021/05/03 06:11:28;;;;;;;11.23;6.47;;;;;;;4.85;69.41;100768.53;5035197;28;20050;-71
2021/05/03 06:13:54;;;;;;;10.93;7.03;;;;;;;4.93;68.90;100770.13;5027801;28;20112;-71
2021/05/03 06:16:20;;;;;;;8.98;6.68;;;;;;;5.08;68.01;100768.81;5015749;28;20056;-72
2021/05/03 06:18:48;;;;;;;9.02;6.25;;;;;;;5.18;68.29;100765.03;5017606;28;20065;-72
2021/05/03 06:21:15;;;;;;;14.90;6.70;;;;;;;5.23;68.03;100763.09;5049696;28;20095;-70
2021/05/03 06:23:42;;;;;;;9.82;6.18;;;;;;;5.35;67.35;100761.88;5051206;28;20144;-67
2021/05/03 06:26:08;;;;;;;14.48;7.18;;;;;;;5.41;67.18;100759.03;5035410;28;20068;-74
2021/05/03 06:28:34;;;;;;;8.30;6.43;;;;;;;5.46;67.51;100750.97;5035606;28;20458;-70
2021/05/03 06:31:00;;;;;;;10.20;6.78;;;;;;;5.65;67.12;100766.28;5034207;28;20041;-76
2021/05/03 06:33:27;;;;;;;11.93;6.10;;;;;;;5.74;66.11;100765.13;5032346;28;20050;-73
2021/05/03 06:35:53;;;;;;;11.93;6.15;;;;;;;5.77;66.07;100771.19;5030809;28;20148;-74
2021/05/03 06:38:21;;;;;;;10.05;6.22;;;;;;;5.77;66.13;100763.25;5014730;28;20133;-72
2021/05/03 06:40:48;;;;;;;10.20;6.03;;;;;;;5.80;66.54;100757.88;5014441;28;20081;-71
2021/05/03 06:43:15;;;;;;;8.88;6.35;;;;;;;5.84;66.40;100751.53;5015954;28;20058;-70
2021/05/03 06:45:42;;;;;;;10.13;7.05;;;;;;;5.94;66.53;100764.50;5014570;28;20155;-71
2021/05/03 06:48:09;;;;;;;12.02;6.00;;;;;;;6.07;65.32;100762.34;5033153;28;20049;-73
2021/05/03 06:50:43;;;;;;;9.18;5.82;;;;;;;6.16;65.62;100762.03;5036693;28;20106;-71
2021/05/03 06:53:11;;;;;;;9.20;5.85;;;;;;;6.30;64.89;100763.38;5054123;28;20144;-75
2021/05/03 06:55:37;;;;;;;13.73;5.88;;;;;;;6.51;63.48;100764.44;5039061;28;20049;-77
2021/05/03 06:58:04;;;;;;;7.20;5.50;;;;;;;6.56;63.88;100762.50;5038734;28;20053;-74
2021/05/03 07:00:38;;;;;;;13.57;6.03;;;;;;;6.65;63.61;100763.97;5041168;28;20050;-73
2021/05/03 07:03:06;;;;;;;8.65;5.80;;;;;;;6.81;62.93;100763.44;5040158;28;20107;-75
2021/05/03 07:05:32;;;;;;;11.45;6.15;;;;;;;6.76;62.60;100729.09;5031467;28;20064;-73
2021/05/03 07:07:59;;;;;;;7.78;5.32;;;;;;;6.92;62.15;100756.81;5052107;28;20133;-74
2021/05/03 07:10:25;;;;;;;9.77;5.80;;;;;;;7.07;62.44;100755.38;5052771;28;20061;-72
2021/05/03 07:12:52;;;;;;;10.20;5.05;;;;;;;7.22;61.48;100757.50;5038117;28;20049;-72
2021/05/03 07:15:18;;;;;;;10.45;5.63;;;;;;;7.38;60.69;100760.47;5037199;28;20137;-71
2021/05/03 07:17:46;;;;;;;7.70;5.00;;;;;;;7.40;59.63;100762.13;5038215;28;20099;-68
2021/05/03 07:20:14;;;;;;;10.23;5.30;;;;;;;7.44;59.40;100749.59;5043378;28;20068;-71
2021/05/03 07:22:41;;;;;;;9.15;5.28;;;;;;;7.52;59.67;100766.09;5029330;28;20057;-72
2021/05/03 07:25:10;;;;;;;11.77;5.60;;;;;;;7.69;59.14;100761.94;5037479;28;20056;-69
2021/05/03 07:27:38;;;;;;;10.23;5.28;;;;;;;7.73;57.81;100740.50;5023577;28;20467;-70
2021/05/03 07:30:10;;;;;;;10.00;5.10;;;;;;;7.88;57.75;100748.78;5049863;28;20137;-71
2021/05/03 07:32:37;;;;;;;11.65;4.78;;;;;;;7.93;56.42;100733.53;5051379;28;20445;-72
2021/05/03 07:35:06;;;;;;;16.05;4.95;;;;;;;8.12;53.94;100764.69;5038500;28;20061;-70
2021/05/03 07:37:33;;;;;;;10.07;4.95;;;;;;;8.15;53.55;100748.56;5038386;28;20060;-73
2021/05/03 07:40:02;;;;;;;10.60;4.53;;;;;;;8.19;53.07;100755.50;5037929;28;20089;-76
2021/05/03 07:42:28;;;;;;;10.43;5.15;;;;;;;8.29;53.32;100762.16;5037957;28;20045;-73
2021/05/03 07:45:14;;;;;;;6.57;4.55;;;;;;;8.32;53.11;100762.97;5037449;28;20050;-73
2021/05/03 07:47:43;;;;;;;7.93;5.30;;;;;;;8.36;54.38;100752.16;5038488;28;20055;-72
2021/05/03 07:50:10;;;;;;;6.55;4.93;;;;;;;8.44;53.72;100749.13;5038263;28;20226;-72
2021/05/03 07:52:37;;;;;;;10.57;4.88;;;;;;;8.56;53.71;100756.63;5038250;28;20055;-71
2021/05/03 07:55:05;;;;;;;11.13;5.20;;;;;;;8.64;53.74;100750.13;5053906;28;20689;-73
2021/05/03 07:57:31;;;;;;;12.68;6.38;;;;;;;8.75;53.79;100744.31;5019594;28;20132;-75
2021/05/03 07:59:57;;;;;;;14.95;5.95;;;;;;;8.74;52.97;100735.47;5034175;28;20398;-72
2021/05/03 08:02:24;;;;;;;11.13;6.28;;;;;;;8.80;53.15;100740.53;5017919;28;20056;-72
2021/05/03 08:04:52;;;;;;;11.25;5.90;;;;;;;8.87;54.22;100746.44;5025363;28;20077;-71
2021/05/03 08:07:19;;;;;;;11.20;6.30;;;;;;;8.86;54.02;100744.72;5020824;28;20056;-71
2021/05/03 08:09:46;;;;;;;10.10;5.60;;;;;;;8.89;53.89;100741.06;5018311;28;20269;-71
2021/05/03 08:12:12;;;;;;;10.80;5.75;;;;;;;8.96;53.69;100739.84;5018020;28;20049;-71
2021/05/03 08:14:40;;;;;;;10.20;6.15;;;;;;;9.04;54.36;100743.03;5032212;28;20057;-73
2021/05/03 08:17:10;;;;;;;11.05;6.07;;;;;;;9.05;54.21;100733.25;5034166;28;20057;-73
2021/05/03 08:19:36;;;;;;;10.73;5.78;;;;;;;9.16;54.28;100740.75;5019218;28;20089;-74
2021/05/03 08:22:03;;;;;;;8.38;6.22;;;;;;;9.18;53.18;100737.06;5017794;28;20076;-71
2021/05/03 08:24:32;;;;;;;8.25;5.65;;;;;;;9.22;52.42;100740.47;5017841;28;20057;-75
2021/05/03 08:27:00;;;;;;;17.23;7.15;;;;;;;9.30;52.95;100737.44;5017710;28;20499;-72
2021/05/03 08:29:26;;;;;;;12.85;7.00;;;;;;;9.19;52.34;100713.97;5017657;28;20058;-71
2021/05/03 08:31:54;;;;;;;11.00;6.45;;;;;;;9.28;51.47;100729.53;5017568;28;20057;-73
2021/05/03 08:34:20;;;;;;;11.13;6.18;;;;;;;9.28;51.08;100721.53;5017769;28;20065;-75
2021/05/03 08:36:46;;;;;;;16.10;6.25;;;;;;;9.33;52.00;100738.16;5017477;28;20069;-74
2021/05/03 08:39:12;;;;;;;10.77;6.32;;;;;;;9.40;52.03;100725.41;5017879;28;20053;-75
2021/05/03 08:41:39;;;;;;;11.68;6.03;;;;;;;9.51;51.66;100719.56;5021155;28;20042;-74
2021/05/03 08:44:07;;;;;;;10.35;6.78;;;;;;;9.61;52.32;100734.22;5017641;28;20053;-71
2021/05/03 08:46:39;;;;;;;9.40;6.28;;;;;;;9.61;51.27;100731.53;5018857;28;20053;-73
2021/05/03 08:54:25;;;;;;;15.82;6.43;;;;;;;9.67;49.90;100717.03;5017542;28;20112;-74
2021/05/03 08:56:52;;;;;;;12.43;6.00;;;;;;;9.84;49.64;100718.88;5030555;28;20136;-73
2021/05/03 08:59:19;;;;;;;12.40;6.50;;;;;;;9.86;50.60;100703.66;5036803;28;20060;-76
2021/05/03 09:01:47;;;;;;;13.38;6.80;;;;;;;9.99;51.24;100701.28;5035828;28;20057;-79
2021/05/03 09:04:14;;;;;;;13.35;6.47;;;;;;;10.14;50.25;100710.28;5027698;28;20389;-77
2021/05/03 09:07:00;;;;;;;14.75;6.57;;;;;;;10.15;48.73;100690.66;5032742;28;20141;-71
2021/05/03 09:09:33;;;;;;;11.48;5.97;;;;;;;10.29;49.03;100691.78;5036930;28;20073;-76
2021/05/03 09:12:06;;;;;;;10.00;6.60;;;;;;;10.38;48.66;100677.09;5033545;28;20050;-73
2021/05/03 09:14:44;;;;;;;7.78;5.18;;;;;;;10.49;46.89;100687.25;5029837;28;20132;-74
2021/05/03 09:17:33;;;;;;;11.15;5.72;;;;;;;10.52;46.77;100682.59;5036648;28;20056;-75
2021/05/03 09:20:14;;;;;;;9.85;5.57;;;;;;;10.70;48.62;100682.59;5035521;28;20065;-75
2021/05/03 09:22:46;;;;;;;7.35;5.43;;;;;;;10.88;44.75;100686.06;5036634;28;20049;-73
2021/05/03 09:25:33;;;;;;;11.68;6.85;;;;;;;10.94;43.58;100683.06;5035116;28;20050;-71
2021/05/03 09:28:11;;;;;;;6.55;5.50;;;;;;;10.95;43.09;100683.94;5035162;28;20056;-74
2021/05/03 09:30:55;;;;;;;9.52;5.95;;;;;;;10.92;43.23;100681.44;5035339;28;20045;-70
2021/05/03 09:33:24;;;;;;;8.18;5.43;;;;;;;11.03;43.49;100679.06;5036294;28;20049;-70
2021/05/03 09:35:53;;;;;;;13.45;6.28;;;;;;;11.10;44.12;100685.78;5028635;28;20056;-73
2021/05/03 09:38:31;;;;;;;9.10;5.70;;;;;;;11.24;43.23;100676.13;5016286;28;20111;-71
2021/05/03 09:41:26;;;;;;;9.32;6.25;;;;;;;11.44;42.65;100669.66;5015577;28;20060;-72
2021/05/03 09:44:04;;;;;;;7.13;5.50;;;;;;;11.45;42.66;100674.09;5016330;28;20435;-72
2021/05/03 09:46:43;;;;;;;8.45;6.78;;;;;;;11.35;41.98;100665.72;5016318;28;20057;-71
2021/05/03 09:49:12;;;;;;;11.80;6.68;;;;;;;11.35;43.16;100656.84;5018954;28;20384;-71
2021/05/03 09:51:59;;;;;;;10.05;6.88;;;;;;;11.44;44.01;100656.28;5016306;28;20053;-71
2021/05/03 09:54:31;;;;;;;13.27;7.00;;;;;;;11.34;43.20;100644.41;5016161;28;20514;-70
2021/05/03 09:57:10;;;;;;;;;;;;;;;11.55;43.53;100648.53;5016301;28;20771;-75
2021/05/03 10:00:58;;;;;;;10.98;6.90;;;;;;;11.82;43.68;100650.56;5052165;27;20400;-74
2021/05/03 10:03:36;;;;;;;14.95;8.00;;;;;;;11.97;43.23;100642.59;5052514;28;20122;-70
2021/05/03 10:06:08;;;;;;;12.20;8.30;;;;;;;11.94;43.85;100632.91;5051250;28;20049;-72
2021/05/03 10:08:36;;;;;;;13.15;8.05;;;;;;;12.08;44.76;100626.78;5036338;28;20355;-72
2021/05/03 10:11:11;;;;;;;13.20;7.35;;;;;;;12.15;43.47;100637.97;5030842;28;20100;-71
2021/05/03 10:13:39;;;;;;;9.40;6.95;;;;;;;11.91;42.42;100630.44;5031769;28;20091;-72
2021/05/03 10:16:07;;;;;;;7.32;5.60;;;;;;;11.92;41.55;100625.94;5032378;28;20049;-72
2021/05/03 10:18:39;;;;;;;8.18;6.28;;;;;;;12.09;40.96;100619.63;5032464;28;20061;-70
2021/05/03 10:21:10;;;;;;;10.60;6.70;;;;;;;12.26;42.27;100607.03;5032206;28;20046;-70
2021/05/03 10:23:41;;;;;;;9.27;7.10;;;;;;;12.60;42.12;100608.47;5047525;28;20431;-71
2021/05/03 10:26:08;;;;;;;8.95;6.60;;;;;;;12.97;42.12;100604.44;5032308;28;20077;-72
2021/05/03 10:28:55;;;;;;;11.25;6.72;;;;;;;12.86;40.71;100605.13;5032457;28;20053;-70
2021/05/03 10:31:23;;;;;;;13.00;6.20;;;;;;;12.42;39.83;100596.25;5032393;28;20053;-70
2021/05/03 10:33:51;;;;;;;7.90;5.95;;;;;;;12.39;40.55;100591.06;5032349;28;20060;-71
2021/05/03 10:36:38;;;;;;;9.23;6.50;;;;;;;12.66;41.04;100601.03;5032875;28;20128;-73
2021/05/03 10:39:29;;;;;;;11.15;6.22;;;;;;;12.90;40.19;100594.13;5032808;28;20058;-71
2021/05/03 10:42:08;;;;;;;7.80;5.47;;;;;;;13.36;38.92;100577.81;5032220;28;20108;-72
2021/05/03 10:44:40;;;;;;;9.30;5.75;;;;;;;13.26;38.83;100577.56;5032132;28;20116;-72
2021/05/03 10:47:27;;;;;;;6.90;5.70;;;;;;;13.03;39.63;100583.47;5030922;28;20055;-72
2021/05/03 10:49:53;;;;;;;13.20;6.10;;;;;;;12.86;40.79;100581.03;5031754;28;20092;-71
2021/05/03 10:52:38;;;;;;;7.68;5.43;;;;;;;12.38;39.34;100573.31;5031931;28;20073;-70
2021/05/03 10:55:13;;;;;;;8.82;5.68;;;;;;;12.18;41.23;100572.72;5031670;28;20350;-71
2021/05/03 10:57:39;;;;;;;10.23;5.68;;;;;;;11.94;41.68;100563.38;5031554;28;20394;-70
2021/05/03 11:00:08;;;;;;;7.60;5.68;;;;;;;12.19;41.87;100571.75;5046856;28;20397;-71
2021/05/03 11:02:34;;;;;;;8.02;6.18;;;;;;;12.59;41.95;100555.88;5031680;28;20442;-70
2021/05/03 11:05:09;;;;;;;9.05;5.85;;;;;;;13.06;41.37;100544.88;5030319;28;20103;-69
2021/05/03 11:07:56;;;;;;;6.07;5.28;;;;;;;13.26;39.32;100554.31;5031602;28;20061;-71
2021/05/03 11:11:02;;;;;;;9.10;5.28;;;;;;;13.08;39.83;100542.97;5028808;28;20136;-72
2021/05/03 11:13:40;;;;;;;6.70;5.00;;;;;;;12.86;39.22;100538.16;5018359;28;20065;-74
2021/05/03 11:16:25;;;;;;;7.47;4.45;;;;;;;12.81;37.95;100541.13;5018172;28;20054;-70
2021/05/03 11:18:53;;;;;;;11.27;5.28;;;;;;;12.66;38.63;100537.63;5018015;28;20107;-72
2021/05/03 11:21:49;;;;;;;6.82;4.78;;;;;;;12.52;39.00;100540.31;5033373;28;20054;-69
2021/05/03 11:24:23;;;;;;;14.50;5.43;;;;;;;12.53;38.83;100532.16;5018065;28;20054;-71
2021/05/03 11:27:02;;;;;;;10.07;6.18;;;;;;;12.47;38.43;100533.44;5018015;28;20053;-70
2021/05/03 11:29:40;;;;;;;7.75;4.85;;;;;;;12.62;38.05;100520.91;5017863;28;20473;-72
2021/05/03 11:32:07;;;;;;;7.38;4.35;;;;;;;12.54;39.02;100533.91;5018085;28;20046;-71
2021/05/03 11:34:45;;;;;;;7.10;5.10;;;;;;;12.43;40.31;100536.41;5017969;28;20136;-73
2021/05/03 11:37:17;;;;;;;10.90;5.68;;;;;;;12.34;40.39;100527.13;5016788;28;20046;-72
2021/05/03 11:40:00;;;;;;;;;;;;;;;12.27;41.00;100526.66;5017456;28;20144;-72
2021/05/03 11:45:30;;;;;;;8.25;4.28;;;;;;;12.29;41.16;100516.72;5017705;28;20359;-72
2021/05/03 11:47:59;;;;;;;7.60;5.10;;;;;;;12.48;41.03;100515.56;5017606;28;20050;-75
2021/05/03 11:50:29;;;;;;;9.43;5.32;;;;;;;12.88;40.89;100504.09;5032766;28;20054;-72
2021/05/03 11:52:59;;;;;;;5.30;4.75;;;;;;;12.87;39.59;100499.69;5017534;28;20054;-71
2021/05/03 11:55:26;;;;;;;9.60;5.35;;;;;;;13.38;38.45;100500.81;5017388;28;20057;-71
2021/05/03 11:57:53;;;;;;;8.00;4.80;;;;;;;13.80;38.05;100485.50;5017464;28;20053;-73
2021/05/03 12:00:22;;;;;;;10.70;5.00;;;;;;;14.06;36.99;100488.16;5032411;28;20057;-72
2021/05/03 12:03:06;;;;;;;5.82;4.55;;;;;;;14.06;37.14;100477.41;5016522;28;20132;-74
2021/05/03 12:05:34;;;;;;;9.35;4.10;;;;;;;14.14;37.52;100474.19;5017109;28;20745;-73